sensor_id;sensor_type;location;lat;lon;timestamp;P1;durP1;ratioP1;P2;durP2;ratioP2
37379;SDS011;23252;-33.992;18.480;2022-12-20T00:01:17;11.57;;;1.90;;
37379;SDS011;23252;-33.992;18.480;2022-12-20T00:03:47;11.52;;;1.88;;
37379;SDS011;23252;-33.992;18.480;2022-12-20T00:06:15;12.50;;;2.22;;
37379;SDS011;23252;-33.992;18.480;2022-12-20T00:08:43;16.85;;;2.10;;
37379;SDS011;23252;-33.992;18.480;2022-12-20T00:11:09;14.15;;;1.85;;
37379;SDS011;23252;-33.992;18.480;2022-12-20T00:13:37;17.75;;;2.33;;
37379;SDS011;23252;-33.992;18.480;2022-12-20T00:16:05;11.88;;;1.80;;
37379;SDS011;23252;-33.992;18.480;2022-12-20T00:18:36;13.10;;;1.80;;
37379;SDS011;23252;-33.992;18.480;2022-12-20T00:21:04;13.02;;;1.77;;
37379;SDS011;23252;-33.992;18.480;2022-12-20T00:23:32;10.00;;;1.80;;
37379;SDS011;23252;-33.992;18.480;2022-12-20T00:26:01;10.70;;;1.63;;
37379;SDS011;23252;-33.992;18.480;2022-12-20T00:28:36;11.05;;;1.40;;
37379;SDS011;23252;-33.992;18.480;2022-12-20T00:31:03;13.63;;;1.50;;
37379;SDS011;23252;-33.992;18.480;2022-12-20T00:33:31;12.48;;;1.90;;
37379;SDS011;23252;-33.992;18.480;2022-12-20T00:35:59;18.02;;;1.90;;
37379;SDS011;23252;-33.992;18.480;2022-12-20T00:38:26;17.02;;;1.65;;
37379;SDS011;23252;-33.992;18.480;2022-12-20T00:41:03;13.85;;;2.00;;
37379;SDS011;23252;-33.992;18.480;2022-12-20T00:43:31;16.48;;;2.10;;
37379;SDS011;23252;-33.992;18.480;2022-12-20T00:48:25;15.45;;;1.58;;
37379;SDS011;23252;-33.992;18.480;2022-12-20T00:50:56;11.73;;;1.88;;
37379;SDS011;23252;-33.992;18.480;2022-12-20T00:53:28;15.02;;;2.10;;
37379;SDS011;23252;-33.992;18.480;2022-12-20T00:58:21;14.30;;;1.77;;
37379;SDS011;23252;-33.992;18.480;2022-12-20T01:00:48;16.48;;;1.90;;
37379;SDS011;23252;-33.992;18.480;2022-12-20T01:03:15;15.70;;;1.85;;
37379;SDS011;23252;-33.992;18.480;2022-12-20T01:08:40;13.90;;;1.67;;
37379;SDS011;23252;-33.992;18.480;2022-12-20T01:11:09;14.88;;;1.80;;
37379;SDS011;23252;-33.992;18.480;2022-12-20T01:13:38;17.92;;;2.35;;
37379;SDS011;23252;-33.992;18.480;2022-12-20T01:16:12;11.32;;;2.00;;
37379;SDS011;23252;-33.992;18.480;2022-12-20T01:18:41;13.10;;;1.77;;
37379;SDS011;23252;-33.992;18.480;2022-12-20T01:21:09;19.27;;;2.75;;
37379;SDS011;23252;-33.992;18.480;2022-12-20T01:23:37;19.30;;;2.85;;
37379;SDS011;23252;-33.992;18.480;2022-12-20T01:26:05;18.75;;;2.70;;
37379;SDS011;23252;-33.992;18.480;2022-12-20T01:28:34;14.90;;;1.80;;
37379;SDS011;23252;-33.992;18.480;2022-12-20T01:31:04;18.73;;;2.97;;
37379;SDS011;23252;-33.992;18.480;2022-12-20T01:33:36;11.63;;;1.55;;
37379;SDS011;23252;-33.992;18.480;2022-12-20T01:36:06;18.17;;;1.95;;
37379;SDS011;23252;-33.992;18.480;2022-12-20T01:38:35;16.17;;;1.73;;
37379;SDS011;23252;-33.992;18.480;2022-12-20T01:41:03;10.85;;;2.10;;
37379;SDS011;23252;-33.992;18.480;2022-12-20T01:46:16;7.05;;;1.38;;
37379;SDS011;23252;-33.992;18.480;2022-12-20T01:48:50;11.52;;;1.88;;
37379;SDS011;23252;-33.992;18.480;2022-12-20T01:51:17;8.10;;;1.88;;
37379;SDS011;23252;-33.992;18.480;2022-12-20T01:53:44;13.07;;;1.67;;
37379;SDS011;23252;-33.992;18.480;2022-12-20T01:56:13;18.65;;;2.50;;
37379;SDS011;23252;-33.992;18.480;2022-12-20T01:58:40;16.52;;;2.05;;
37379;SDS011;23252;-33.992;18.480;2022-12-20T02:01:09;12.32;;;1.65;;
37379;SDS011;23252;-33.992;18.480;2022-12-20T02:03:35;20.20;;;2.67;;
37379;SDS011;23252;-33.992;18.480;2022-12-20T02:06:15;15.40;;;2.22;;
37379;SDS011;23252;-33.992;18.480;2022-12-20T02:08:44;15.20;;;2.17;;
37379;SDS011;23252;-33.992;18.480;2022-12-20T02:16:35;11.18;;;1.70;;
37379;SDS011;23252;-33.992;18.480;2022-12-20T02:27:57;17.25;;;2.33;;
37379;SDS011;23252;-33.992;18.480;2022-12-20T02:30:22;14.98;;;2.63;;
37379;SDS011;23252;-33.992;18.480;2022-12-20T02:35:23;13.32;;;2.17;;
37379;SDS011;23252;-33.992;18.480;2022-12-20T02:37:57;13.30;;;2.17;;
37379;SDS011;23252;-33.992;18.480;2022-12-20T02:40:26;14.32;;;2.33;;
37379;SDS011;23252;-33.992;18.480;2022-12-20T02:43:00;13.77;;;2.42;;
37379;SDS011;23252;-33.992;18.480;2022-12-20T02:45:49;14.68;;;2.40;;
37379;SDS011;23252;-33.992;18.480;2022-12-20T02:48:17;19.08;;;2.47;;
37379;SDS011;23252;-33.992;18.480;2022-12-20T02:53:12;12.65;;;1.95;;
37379;SDS011;23252;-33.992;18.480;2022-12-20T02:58:52;14.00;;;2.20;;
37379;SDS011;23252;-33.992;18.480;2022-12-20T03:01:33;15.77;;;1.90;;
37379;SDS011;23252;-33.992;18.480;2022-12-20T03:04:03;22.92;;;2.13;;
37379;SDS011;23252;-33.992;18.480;2022-12-20T03:06:31;11.15;;;1.92;;
37379;SDS011;23252;-33.992;18.480;2022-12-20T03:08:57;14.38;;;2.40;;
37379;SDS011;23252;-33.992;18.480;2022-12-20T03:11:24;12.10;;;1.98;;
37379;SDS011;23252;-33.992;18.480;2022-12-20T03:13:51;16.88;;;1.98;;
37379;SDS011;23252;-33.992;18.480;2022-12-20T03:16:17;10.00;;;2.08;;
37379;SDS011;23252;-33.992;18.480;2022-12-20T03:18:44;14.85;;;1.70;;
37379;SDS011;23252;-33.992;18.480;2022-12-20T03:21:12;11.55;;;1.83;;
37379;SDS011;23252;-33.992;18.480;2022-12-20T03:23:38;12.13;;;2.10;;
37379;SDS011;23252;-33.992;18.480;2022-12-20T03:26:05;15.97;;;2.00;;
37379;SDS011;23252;-33.992;18.480;2022-12-20T03:28:31;11.82;;;2.05;;
37379;SDS011;23252;-33.992;18.480;2022-12-20T03:30:58;20.93;;;2.90;;
37379;SDS011;23252;-33.992;18.480;2022-12-20T03:33:24;19.83;;;2.20;;
37379;SDS011;23252;-33.992;18.480;2022-12-20T03:35:51;12.05;;;1.83;;
37379;SDS011;23252;-33.992;18.480;2022-12-20T03:38:17;20.83;;;2.50;;
37379;SDS011;23252;-33.992;18.480;2022-12-20T03:40:44;14.40;;;1.70;;
37379;SDS011;23252;-33.992;18.480;2022-12-20T03:43:10;15.48;;;2.75;;
37379;SDS011;23252;-33.992;18.480;2022-12-20T03:45:37;15.52;;;2.28;;
37379;SDS011;23252;-33.992;18.480;2022-12-20T03:48:03;15.88;;;2.15;;
37379;SDS011;23252;-33.992;18.480;2022-12-20T03:50:30;15.60;;;3.00;;
37379;SDS011;23252;-33.992;18.480;2022-12-20T03:52:56;13.75;;;2.42;;
37379;SDS011;23252;-33.992;18.480;2022-12-20T03:55:23;13.40;;;2.53;;
37379;SDS011;23252;-33.992;18.480;2022-12-20T03:57:49;14.63;;;2.97;;
37379;SDS011;23252;-33.992;18.480;2022-12-20T04:00:16;13.57;;;2.53;;
37379;SDS011;23252;-33.992;18.480;2022-12-20T04:02:43;17.02;;;2.67;;
37379;SDS011;23252;-33.992;18.480;2022-12-20T04:05:09;15.75;;;2.45;;
37379;SDS011;23252;-33.992;18.480;2022-12-20T04:07:36;15.57;;;2.60;;
37379;SDS011;23252;-33.992;18.480;2022-12-20T04:10:03;13.38;;;2.75;;
37379;SDS011;23252;-33.992;18.480;2022-12-20T04:12:30;18.17;;;2.55;;
37379;SDS011;23252;-33.992;18.480;2022-12-20T04:14:56;14.30;;;2.73;;
37379;SDS011;23252;-33.992;18.480;2022-12-20T04:17:23;15.03;;;2.57;;
37379;SDS011;23252;-33.992;18.480;2022-12-20T04:19:49;11.40;;;1.90;;
37379;SDS011;23252;-33.992;18.480;2022-12-20T04:22:16;16.38;;;2.88;;
37379;SDS011;23252;-33.992;18.480;2022-12-20T04:24:42;19.40;;;2.47;;
37379;SDS011;23252;-33.992;18.480;2022-12-20T04:27:09;19.67;;;2.33;;
37379;SDS011;23252;-33.992;18.480;2022-12-20T04:29:35;13.13;;;2.33;;
37379;SDS011;23252;-33.992;18.480;2022-12-20T04:32:02;12.35;;;1.90;;
37379;SDS011;23252;-33.992;18.480;2022-12-20T04:34:28;11.90;;;1.67;;
37379;SDS011;23252;-33.992;18.480;2022-12-20T04:36:55;12.73;;;2.27;;
37379;SDS011;23252;-33.992;18.480;2022-12-20T04:39:21;10.80;;;2.28;;
37379;SDS011;23252;-33.992;18.480;2022-12-20T04:41:48;12.68;;;2.05;;
37379;SDS011;23252;-33.992;18.480;2022-12-20T04:44:14;10.48;;;1.70;;
37379;SDS011;23252;-33.992;18.480;2022-12-20T04:46:41;10.63;;;1.88;;
37379;SDS011;23252;-33.992;18.480;2022-12-20T04:49:08;16.73;;;2.17;;
37379;SDS011;23252;-33.992;18.480;2022-12-20T04:51:34;12.10;;;2.03;;
37379;SDS011;23252;-33.992;18.480;2022-12-20T04:54:01;9.93;;;1.40;;
37379;SDS011;23252;-33.992;18.480;2022-12-20T04:56:27;12.23;;;1.73;;
37379;SDS011;23252;-33.992;18.480;2022-12-20T04:58:55;14.25;;;2.13;;
37379;SDS011;23252;-33.992;18.480;2022-12-20T05:01:23;11.60;;;1.48;;
37379;SDS011;23252;-33.992;18.480;2022-12-20T05:03:50;12.65;;;1.80;;
37379;SDS011;23252;-33.992;18.480;2022-12-20T05:06:17;14.02;;;1.40;;
37379;SDS011;23252;-33.992;18.480;2022-12-20T05:08:44;11.95;;;1.70;;
37379;SDS011;23252;-33.992;18.480;2022-12-20T05:11:10;11.30;;;1.27;;
37379;SDS011;23252;-33.992;18.480;2022-12-20T05:13:37;10.35;;;1.58;;
37379;SDS011;23252;-33.992;18.480;2022-12-20T05:16:04;6.97;;;1.80;;
37379;SDS011;23252;-33.992;18.480;2022-12-20T05:18:31;12.27;;;1.75;;
37379;SDS011;23252;-33.992;18.480;2022-12-20T05:20:58;8.70;;;1.40;;
37379;SDS011;23252;-33.992;18.480;2022-12-20T05:23:43;12.23;;;2.20;;
37379;SDS011;23252;-33.992;18.480;2022-12-20T05:26:29;13.90;;;1.25;;
37379;SDS011;23252;-33.992;18.480;2022-12-20T05:28:58;23.52;;;1.50;;
37379;SDS011;23252;-33.992;18.480;2022-12-20T05:31:24;12.27;;;1.35;;
37379;SDS011;23252;-33.992;18.480;2022-12-20T05:33:51;14.57;;;1.63;;
37379;SDS011;23252;-33.992;18.480;2022-12-20T05:36:18;9.77;;;1.77;;
37379;SDS011;23252;-33.992;18.480;2022-12-20T05:38:45;11.88;;;1.60;;
37379;SDS011;23252;-33.992;18.480;2022-12-20T05:41:12;15.05;;;1.40;;
37379;SDS011;23252;-33.992;18.480;2022-12-20T05:43:40;8.70;;;1.10;;
37379;SDS011;23252;-33.992;18.480;2022-12-20T05:46:07;8.68;;;1.75;;
37379;SDS011;23252;-33.992;18.480;2022-12-20T05:48:34;8.88;;;1.25;;
37379;SDS011;23252;-33.992;18.480;2022-12-20T05:51:01;5.75;;;0.80;;
37379;SDS011;23252;-33.992;18.480;2022-12-20T05:55:54;12.35;;;1.35;;
37379;SDS011;23252;-33.992;18.480;2022-12-20T05:58:24;9.93;;;1.20;;
37379;SDS011;23252;-33.992;18.480;2022-12-20T06:00:50;5.93;;;1.10;;
37379;SDS011;23252;-33.992;18.480;2022-12-20T06:03:17;12.13;;;1.58;;
37379;SDS011;23252;-33.992;18.480;2022-12-20T06:05:44;9.48;;;1.25;;
37379;SDS011;23252;-33.992;18.480;2022-12-20T06:08:11;5.60;;;1.08;;
37379;SDS011;23252;-33.992;18.480;2022-12-20T06:10:38;11.98;;;1.33;;
37379;SDS011;23252;-33.992;18.480;2022-12-20T06:13:08;9.90;;;1.70;;
37379;SDS011;23252;-33.992;18.480;2022-12-20T06:20:29;8.05;;;1.17;;
37379;SDS011;23252;-33.992;18.480;2022-12-20T06:22:55;6.25;;;1.05;;
37379;SDS011;23252;-33.992;18.480;2022-12-20T06:25:22;9.38;;;1.08;;
37379;SDS011;23252;-33.992;18.480;2022-12-20T06:27:49;6.28;;;1.27;;
37379;SDS011;23252;-33.992;18.480;2022-12-20T06:30:15;11.45;;;1.65;;
37379;SDS011;23252;-33.992;18.480;2022-12-20T06:32:43;10.93;;;1.38;;
37379;SDS011;23252;-33.992;18.480;2022-12-20T06:35:10;10.40;;;1.10;;
37379;SDS011;23252;-33.992;18.480;2022-12-20T06:37:36;7.70;;;1.17;;
37379;SDS011;23252;-33.992;18.480;2022-12-20T06:40:07;11.60;;;1.42;;
37379;SDS011;23252;-33.992;18.480;2022-12-20T06:42:35;8.32;;;1.42;;
37379;SDS011;23252;-33.992;18.480;2022-12-20T06:45:02;9.70;;;1.40;;
37379;SDS011;23252;-33.992;18.480;2022-12-20T06:47:31;5.05;;;0.85;;
37379;SDS011;23252;-33.992;18.480;2022-12-20T06:49:57;13.05;;;1.25;;
37379;SDS011;23252;-33.992;18.480;2022-12-20T06:52:24;15.60;;;2.40;;
37379;SDS011;23252;-33.992;18.480;2022-12-20T06:54:50;10.70;;;0.90;;
37379;SDS011;23252;-33.992;18.480;2022-12-20T06:57:17;11.98;;;1.70;;
37379;SDS011;23252;-33.992;18.480;2022-12-20T06:59:44;10.25;;;1.42;;
37379;SDS011;23252;-33.992;18.480;2022-12-20T07:02:10;7.97;;;1.40;;
37379;SDS011;23252;-33.992;18.480;2022-12-20T07:04:37;9.00;;;1.52;;
37379;SDS011;23252;-33.992;18.480;2022-12-20T07:07:04;7.38;;;1.08;;
37379;SDS011;23252;-33.992;18.480;2022-12-20T07:09:30;7.82;;;1.10;;
37379;SDS011;23252;-33.992;18.480;2022-12-20T07:11:57;6.22;;;1.30;;
37379;SDS011;23252;-33.992;18.480;2022-12-20T07:14:24;10.63;;;1.38;;
37379;SDS011;23252;-33.992;18.480;2022-12-20T07:16:50;9.35;;;1.98;;
37379;SDS011;23252;-33.992;18.480;2022-12-20T07:19:19;4.70;;;0.90;;
37379;SDS011;23252;-33.992;18.480;2022-12-20T07:21:46;11.40;;;1.58;;
37379;SDS011;23252;-33.992;18.480;2022-12-20T07:24:13;7.78;;;1.08;;
37379;SDS011;23252;-33.992;18.480;2022-12-20T07:26:40;8.02;;;1.23;;
37379;SDS011;23252;-33.992;18.480;2022-12-20T07:29:08;10.85;;;1.05;;
37379;SDS011;23252;-33.992;18.480;2022-12-20T07:31:35;11.57;;;1.70;;
37379;SDS011;23252;-33.992;18.480;2022-12-20T07:34:01;8.88;;;1.42;;
37379;SDS011;23252;-33.992;18.480;2022-12-20T07:36:28;8.10;;;1.20;;
37379;SDS011;23252;-33.992;18.480;2022-12-20T07:38:54;7.85;;;1.10;;
37379;SDS011;23252;-33.992;18.480;2022-12-20T07:41:22;7.13;;;1.02;;
37379;SDS011;23252;-33.992;18.480;2022-12-20T07:43:49;9.13;;;1.20;;
37379;SDS011;23252;-33.992;18.480;2022-12-20T07:46:22;7.15;;;1.27;;
37379;SDS011;23252;-33.992;18.480;2022-12-20T07:48:49;10.45;;;1.67;;
37379;SDS011;23252;-33.992;18.480;2022-12-20T07:51:34;8.82;;;1.83;;
37379;SDS011;23252;-33.992;18.480;2022-12-20T07:54:11;7.53;;;1.77;;
37379;SDS011;23252;-33.992;18.480;2022-12-20T07:56:45;8.60;;;1.85;;
37379;SDS011;23252;-33.992;18.480;2022-12-20T07:59:15;7.05;;;1.27;;
37379;SDS011;23252;-33.992;18.480;2022-12-20T08:01:45;12.35;;;1.83;;
37379;SDS011;23252;-33.992;18.480;2022-12-20T08:04:17;6.57;;;0.93;;
37379;SDS011;23252;-33.992;18.480;2022-12-20T08:06:48;7.75;;;1.10;;
37379;SDS011;23252;-33.992;18.480;2022-12-20T08:09:16;6.53;;;1.10;;
37379;SDS011;23252;-33.992;18.480;2022-12-20T08:11:44;6.72;;;1.25;;
37379;SDS011;23252;-33.992;18.480;2022-12-20T08:14:13;6.13;;;0.82;;
37379;SDS011;23252;-33.992;18.480;2022-12-20T08:16:41;9.55;;;1.00;;
37379;SDS011;23252;-33.992;18.480;2022-12-20T08:19:08;8.93;;;1.60;;
37379;SDS011;23252;-33.992;18.480;2022-12-20T08:21:35;7.82;;;1.00;;
37379;SDS011;23252;-33.992;18.480;2022-12-20T08:24:01;8.13;;;1.30;;
37379;SDS011;23252;-33.992;18.480;2022-12-20T08:26:28;5.03;;;1.00;;
37379;SDS011;23252;-33.992;18.480;2022-12-20T08:28:55;10.52;;;1.38;;
37379;SDS011;23252;-33.992;18.480;2022-12-20T08:31:21;10.07;;;1.45;;
37379;SDS011;23252;-33.992;18.480;2022-12-20T08:33:48;5.95;;;1.00;;
37379;SDS011;23252;-33.992;18.480;2022-12-20T08:36:15;13.10;;;1.67;;
37379;SDS011;23252;-33.992;18.480;2022-12-20T08:38:41;8.90;;;1.17;;
37379;SDS011;23252;-33.992;18.480;2022-12-20T08:41:14;7.32;;;0.95;;
37379;SDS011;23252;-33.992;18.480;2022-12-20T08:43:42;8.48;;;1.13;;
37379;SDS011;23252;-33.992;18.480;2022-12-20T08:48:36;11.63;;;1.55;;
37379;SDS011;23252;-33.992;18.480;2022-12-20T08:51:04;6.00;;;1.23;;
37379;SDS011;23252;-33.992;18.480;2022-12-20T08:53:34;5.88;;;1.00;;
37379;SDS011;23252;-33.992;18.480;2022-12-20T08:56:05;8.63;;;1.10;;
37379;SDS011;23252;-33.992;18.480;2022-12-20T08:58:37;10.27;;;1.60;;
37379;SDS011;23252;-33.992;18.480;2022-12-20T09:01:06;10.98;;;1.45;;
37379;SDS011;23252;-33.992;18.480;2022-12-20T09:03:35;11.10;;;1.15;;
37379;SDS011;23252;-33.992;18.480;2022-12-20T09:06:06;6.20;;;1.02;;
37379;SDS011;23252;-33.992;18.480;2022-12-20T09:08:34;4.70;;;0.93;;
37379;SDS011;23252;-33.992;18.480;2022-12-20T09:11:06;6.63;;;0.95;;
37379;SDS011;23252;-33.992;18.480;2022-12-20T09:13:36;11.55;;;1.08;;
37379;SDS011;23252;-33.992;18.480;2022-12-20T09:18:33;7.07;;;1.20;;
37379;SDS011;23252;-33.992;18.480;2022-12-20T09:21:00;6.13;;;0.75;;
37379;SDS011;23252;-33.992;18.480;2022-12-20T09:23:28;10.68;;;1.80;;
37379;SDS011;23252;-33.992;18.480;2022-12-20T09:25:55;11.52;;;1.17;;
37379;SDS011;23252;-33.992;18.480;2022-12-20T09:28:26;6.70;;;0.93;;
37379;SDS011;23252;-33.992;18.480;2022-12-20T09:30:56;6.10;;;0.95;;
37379;SDS011;23252;-33.992;18.480;2022-12-20T09:33:23;5.80;;;0.95;;
37379;SDS011;23252;-33.992;18.480;2022-12-20T09:35:50;7.75;;;0.90;;
37379;SDS011;23252;-33.992;18.480;2022-12-20T09:38:16;4.88;;;0.82;;
37379;SDS011;23252;-33.992;18.480;2022-12-20T09:40:43;6.95;;;1.00;;
37379;SDS011;23252;-33.992;18.480;2022-12-20T09:43:15;7.38;;;0.90;;
37379;SDS011;23252;-33.992;18.480;2022-12-20T09:45:43;10.38;;;1.45;;
37379;SDS011;23252;-33.992;18.480;2022-12-20T09:48:24;7.55;;;0.93;;
37379;SDS011;23252;-33.992;18.480;2022-12-20T09:56:07;5.40;;;1.10;;
37379;SDS011;23252;-33.992;18.480;2022-12-20T10:01:21;6.90;;;1.17;;
37379;SDS011;23252;-33.992;18.480;2022-12-20T10:03:49;7.15;;;0.90;;
37379;SDS011;23252;-33.992;18.480;2022-12-20T10:06:33;8.68;;;0.90;;
37379;SDS011;23252;-33.992;18.480;2022-12-20T10:09:02;4.80;;;1.00;;
37379;SDS011;23252;-33.992;18.480;2022-12-20T10:17:03;7.30;;;1.13;;
37379;SDS011;23252;-33.992;18.480;2022-12-20T10:19:42;9.43;;;1.37;;
37379;SDS011;23252;-33.992;18.480;2022-12-20T10:25:28;7.60;;;1.00;;
37379;SDS011;23252;-33.992;18.480;2022-12-20T10:27:57;6.80;;;1.17;;
37379;SDS011;23252;-33.992;18.480;2022-12-20T10:30:27;7.07;;;1.48;;
37379;SDS011;23252;-33.992;18.480;2022-12-20T10:32:56;6.97;;;1.05;;
37379;SDS011;23252;-33.992;18.480;2022-12-20T10:35:27;7.07;;;0.88;;
37379;SDS011;23252;-33.992;18.480;2022-12-20T10:38:02;6.70;;;1.25;;
37379;SDS011;23252;-33.992;18.480;2022-12-20T10:40:32;6.93;;;0.88;;
37379;SDS011;23252;-33.992;18.480;2022-12-20T10:43:04;7.65;;;0.82;;
37379;SDS011;23252;-33.992;18.480;2022-12-20T10:45:41;6.25;;;1.10;;
37379;SDS011;23252;-33.992;18.480;2022-12-20T10:51:02;4.82;;;1.08;;
37379;SDS011;23252;-33.992;18.480;2022-12-20T10:56:26;5.22;;;0.68;;
37379;SDS011;23252;-33.992;18.480;2022-12-20T10:59:02;5.95;;;0.88;;
37379;SDS011;23252;-33.992;18.480;2022-12-20T11:01:46;4.22;;;0.80;;
37379;SDS011;23252;-33.992;18.480;2022-12-20T11:04:27;7.05;;;0.90;;
37379;SDS011;23252;-33.992;18.480;2022-12-20T11:07:00;3.10;;;0.60;;
37379;SDS011;23252;-33.992;18.480;2022-12-20T11:09:35;6.60;;;0.90;;
37379;SDS011;23252;-33.992;18.480;2022-12-20T11:14:29;4.88;;;0.52;;
37379;SDS011;23252;-33.992;18.480;2022-12-20T11:16:57;5.25;;;0.68;;
37379;SDS011;23252;-33.992;18.480;2022-12-20T11:31:00;4.00;;;0.70;;
37379;SDS011;23252;-33.992;18.480;2022-12-20T11:37:01;2.45;;;0.40;;
37379;SDS011;23252;-33.992;18.480;2022-12-20T11:45:22;7.00;;;0.60;;
37379;SDS011;23252;-33.992;18.480;2022-12-20T11:50:57;7.55;;;1.05;;
37379;SDS011;23252;-33.992;18.480;2022-12-20T11:53:39;5.20;;;0.90;;
37379;SDS011;23252;-33.992;18.480;2022-12-20T11:56:21;10.55;;;1.15;;
37379;SDS011;23252;-33.992;18.480;2022-12-20T12:01:37;4.50;;;0.60;;
37379;SDS011;23252;-33.992;18.480;2022-12-20T12:06:47;6.65;;;0.98;;
37379;SDS011;23252;-33.992;18.480;2022-12-20T12:09:22;4.68;;;1.00;;
37379;SDS011;23252;-33.992;18.480;2022-12-20T12:22:48;7.15;;;0.93;;
37379;SDS011;23252;-33.992;18.480;2022-12-20T12:25:19;9.45;;;1.23;;
37379;SDS011;23252;-33.992;18.480;2022-12-20T12:27:46;6.43;;;1.02;;
37379;SDS011;23252;-33.992;18.480;2022-12-20T12:30:13;7.50;;;0.70;;
37379;SDS011;23252;-33.992;18.480;2022-12-20T12:32:50;5.13;;;0.63;;
37379;SDS011;23252;-33.992;18.480;2022-12-20T12:35:41;6.05;;;1.00;;
37379;SDS011;23252;-33.992;18.480;2022-12-20T12:41:27;7.13;;;1.13;;
37379;SDS011;23252;-33.992;18.480;2022-12-20T12:47:05;5.15;;;0.90;;
37379;SDS011;23252;-33.992;18.480;2022-12-20T12:49:45;3.35;;;0.80;;
37379;SDS011;23252;-33.992;18.480;2022-12-20T12:52:28;4.80;;;0.75;;
37379;SDS011;23252;-33.992;18.480;2022-12-20T12:58:51;5.00;;;0.85;;
37379;SDS011;23252;-33.992;18.480;2022-12-20T13:01:01;4.57;;;0.73;;
37379;SDS011;23252;-33.992;18.480;2022-12-20T13:11:34;5.47;;;0.73;;
37379;SDS011;23252;-33.992;18.480;2022-12-20T13:19:34;6.57;;;0.90;;
37379;SDS011;23252;-33.992;18.480;2022-12-20T13:27:24;7.25;;;1.00;;
37379;SDS011;23252;-33.992;18.480;2022-12-20T13:37:53;6.97;;;1.17;;
37379;SDS011;23252;-33.992;18.480;2022-12-20T13:40:25;7.82;;;1.00;;
37379;SDS011;23252;-33.992;18.480;2022-12-20T13:45:52;9.05;;;1.45;;
37379;SDS011;23252;-33.992;18.480;2022-12-20T13:48:40;6.80;;;1.30;;
37379;SDS011;23252;-33.992;18.480;2022-12-20T13:51:30;7.97;;;1.23;;
37379;SDS011;23252;-33.992;18.480;2022-12-20T13:54:00;6.85;;;0.88;;
37379;SDS011;23252;-33.992;18.480;2022-12-20T13:56:33;8.02;;;1.27;;
37379;SDS011;23252;-33.992;18.480;2022-12-20T13:59:04;11.32;;;1.83;;
37379;SDS011;23252;-33.992;18.480;2022-12-20T14:01:45;8.52;;;1.00;;
37379;SDS011;23252;-33.992;18.480;2022-12-20T14:04:14;7.40;;;1.13;;
37379;SDS011;23252;-33.992;18.480;2022-12-20T14:06:42;6.07;;;1.13;;
37379;SDS011;23252;-33.992;18.480;2022-12-20T14:12:01;8.25;;;1.10;;
37379;SDS011;23252;-33.992;18.480;2022-12-20T14:14:42;3.28;;;0.88;;
37379;SDS011;23252;-33.992;18.480;2022-12-20T14:17:29;5.30;;;1.27;;
37379;SDS011;23252;-33.992;18.480;2022-12-20T14:28:04;9.57;;;1.80;;
37379;SDS011;23252;-33.992;18.480;2022-12-20T14:30:58;10.43;;;1.40;;
37379;SDS011;23252;-33.992;18.480;2022-12-20T14:38:35;16.92;;;2.30;;
37379;SDS011;23252;-33.992;18.480;2022-12-20T14:46:36;8.82;;;1.40;;
37379;SDS011;23252;-33.992;18.480;2022-12-20T14:51:34;8.75;;;1.48;;
37379;SDS011;23252;-33.992;18.480;2022-12-20T14:54:01;10.90;;;1.65;;
37379;SDS011;23252;-33.992;18.480;2022-12-20T14:56:27;7.22;;;1.55;;
37379;SDS011;23252;-33.992;18.480;2022-12-20T14:59:54;10.23;;;1.55;;
37379;SDS011;23252;-33.992;18.480;2022-12-20T15:01:55;9.75;;;1.40;;
37379;SDS011;23252;-33.992;18.480;2022-12-20T15:04:30;8.50;;;1.42;;
37379;SDS011;23252;-33.992;18.480;2022-12-20T15:06:59;10.20;;;1.73;;
37379;SDS011;23252;-33.992;18.480;2022-12-20T15:09:26;12.13;;;1.52;;
37379;SDS011;23252;-33.992;18.480;2022-12-20T15:11:54;14.43;;;2.08;;
37379;SDS011;23252;-33.992;18.480;2022-12-20T15:16:59;9.15;;;1.48;;
37379;SDS011;23252;-33.992;18.480;2022-12-20T15:19:26;7.35;;;1.45;;
37379;SDS011;23252;-33.992;18.480;2022-12-20T15:21:53;13.90;;;1.63;;
37379;SDS011;23252;-33.992;18.480;2022-12-20T15:24:22;15.20;;;1.60;;
37379;SDS011;23252;-33.992;18.480;2022-12-20T15:26:50;6.45;;;1.50;;
37379;SDS011;23252;-33.992;18.480;2022-12-20T15:29:18;6.97;;;1.65;;
37379;SDS011;23252;-33.992;18.480;2022-12-20T15:31:49;15.95;;;2.25;;
37379;SDS011;23252;-33.992;18.480;2022-12-20T15:34:19;8.90;;;1.80;;
37379;SDS011;23252;-33.992;18.480;2022-12-20T15:36:55;11.90;;;1.83;;
37379;SDS011;23252;-33.992;18.480;2022-12-20T15:39:24;12.10;;;1.88;;
37379;SDS011;23252;-33.992;18.480;2022-12-20T15:41:52;10.73;;;1.98;;
37379;SDS011;23252;-33.992;18.480;2022-12-20T15:44:22;13.30;;;2.00;;
37379;SDS011;23252;-33.992;18.480;2022-12-20T15:46:50;8.55;;;2.08;;
37379;SDS011;23252;-33.992;18.480;2022-12-20T15:49:18;21.33;;;3.50;;
37379;SDS011;23252;-33.992;18.480;2022-12-20T15:51:47;11.18;;;1.95;;
37379;SDS011;23252;-33.992;18.480;2022-12-20T15:56:46;9.18;;;1.85;;
37379;SDS011;23252;-33.992;18.480;2022-12-20T15:59:12;13.70;;;2.38;;
37379;SDS011;23252;-33.992;18.480;2022-12-20T16:01:39;13.05;;;1.88;;
37379;SDS011;23252;-33.992;18.480;2022-12-20T16:04:06;10.68;;;1.77;;
37379;SDS011;23252;-33.992;18.480;2022-12-20T16:06:37;11.23;;;1.88;;
37379;SDS011;23252;-33.992;18.480;2022-12-20T16:09:03;11.57;;;2.00;;
37379;SDS011;23252;-33.992;18.480;2022-12-20T16:11:30;14.00;;;2.47;;
37379;SDS011;23252;-33.992;18.480;2022-12-20T16:13:57;11.35;;;2.05;;
37379;SDS011;23252;-33.992;18.480;2022-12-20T16:16:31;10.85;;;2.42;;
37379;SDS011;23252;-33.992;18.480;2022-12-20T16:19:00;12.20;;;1.85;;
37379;SDS011;23252;-33.992;18.480;2022-12-20T16:21:32;12.35;;;1.90;;
37379;SDS011;23252;-33.992;18.480;2022-12-20T16:24:00;15.48;;;1.88;;
37379;SDS011;23252;-33.992;18.480;2022-12-20T16:26:27;12.27;;;1.70;;
37379;SDS011;23252;-33.992;18.480;2022-12-20T16:28:57;12.13;;;2.42;;
37379;SDS011;23252;-33.992;18.480;2022-12-20T16:33:56;10.55;;;2.28;;
37379;SDS011;23252;-33.992;18.480;2022-12-20T16:36:24;16.25;;;2.28;;
37379;SDS011;23252;-33.992;18.480;2022-12-20T16:38:51;14.55;;;2.08;;
37379;SDS011;23252;-33.992;18.480;2022-12-20T16:41:24;10.77;;;1.80;;
37379;SDS011;23252;-33.992;18.480;2022-12-20T16:43:53;16.10;;;2.78;;
37379;SDS011;23252;-33.992;18.480;2022-12-20T16:46:23;13.88;;;2.10;;
37379;SDS011;23252;-33.992;18.480;2022-12-20T16:48:52;10.65;;;1.85;;
37379;SDS011;23252;-33.992;18.480;2022-12-20T16:53:54;18.45;;;3.13;;
37379;SDS011;23252;-33.992;18.480;2022-12-20T16:56:22;12.90;;;2.70;;
37379;SDS011;23252;-33.992;18.480;2022-12-20T16:58:49;10.15;;;1.92;;
37379;SDS011;23252;-33.992;18.480;2022-12-20T17:01:23;12.30;;;2.20;;
37379;SDS011;23252;-33.992;18.480;2022-12-20T17:03:56;15.77;;;2.63;;
37379;SDS011;23252;-33.992;18.480;2022-12-20T17:06:23;10.05;;;1.70;;
37379;SDS011;23252;-33.992;18.480;2022-12-20T17:08:49;11.40;;;2.05;;
37379;SDS011;23252;-33.992;18.480;2022-12-20T17:11:26;18.40;;;2.17;;
37379;SDS011;23252;-33.992;18.480;2022-12-20T17:13:54;16.17;;;2.50;;
37379;SDS011;23252;-33.992;18.480;2022-12-20T17:16:25;12.60;;;2.13;;
37379;SDS011;23252;-33.992;18.480;2022-12-20T17:18:53;11.40;;;1.65;;
37379;SDS011;23252;-33.992;18.480;2022-12-20T17:24:00;11.20;;;2.10;;
37379;SDS011;23252;-33.992;18.480;2022-12-20T17:26:28;16.88;;;2.30;;
37379;SDS011;23252;-33.992;18.480;2022-12-20T17:28:56;14.38;;;2.35;;
37379;SDS011;23252;-33.992;18.480;2022-12-20T17:31:28;12.75;;;2.00;;
37379;SDS011;23252;-33.992;18.480;2022-12-20T17:34:04;14.77;;;1.90;;